Time;durP1;ratioP1;P1;durP2;ratioP2;P2;SDS_P1;SDS_P2;PMS_P1;PMS_P2;Temp;Humidity;BMP_temperature;BMP_pressure;BME280_temperature;BME280_humidity;BME280_pressure;Samples;Min_cycle;Max_cycle;Signal;HPM_P1;HPM_P2
2022/11/27 00:00:13;;;;;;;;;;;19.50;45.10;;;;;;5035736;28;19913;-72
2022/11/27 00:02:40;;;;;;;;;;;19.60;45.10;;;;;;5041479;28;19913;-73
2022/11/27 00:05:08;;;;;;;;;;;19.50;45.10;;;;;;5040759;28;19909;-72
2022/11/27 00:07:36;;;;;;;;;;;19.50;45.10;;;;;;5031061;28;19977;-73
2022/11/27 00:10:02;;;;;;;;;;;19.50;45.10;;;;;;5057793;28;19924;-73
2022/11/27 00:12:29;;;;;;;;;;;19.50;45.10;;;;;;5058355;28;19933;-73
2022/11/27 00:14:56;;;;;;;;;;;19.50;45.10;;;;;;5051468;28;19913;-72
2022/11/27 00:17:23;;;;;;;;;;;19.50;45.10;;;;;;5056669;28;19914;-72
2022/11/27 00:19:49;;;;;;;;;;;19.50;45.10;;;;;;5053382;28;19910;-72
2022/11/27 00:22:18;;;;;;;;;;;19.50;45.10;;;;;;5020971;28;19937;-73
2022/11/27 00:24:44;;;;;;;;;;;19.50;45.10;;;;;;5030209;28;19936;-73
2022/11/27 00:27:11;;;;;;;;;;;19.50;45.10;;;;;;5060415;28;19915;-73
2022/11/27 00:29:38;;;;;;;;;;;19.50;45.10;;;;;;5033792;28;19913;-72
2022/11/27 00:32:06;;;;;;;;;;;19.50;45.10;;;;;;5039118;28;19915;-72
2022/11/27 00:34:35;;;;;;;;;;;19.50;45.10;;;;;;5041002;28;19913;-72
2022/11/27 00:37:02;;;;;;;;;;;19.50;45.10;;;;;;5056716;28;19909;-72
2022/11/27 00:39:30;;;;;;;;;;;19.50;45.10;;;;;;5040064;28;19956;-73
2022/11/27 00:41:59;;;;;;;;;;;19.50;45.10;;;;;;5036870;28;19914;-73
2022/11/27 00:44:26;;;;;;;;;;;19.50;45.10;;;;;;5060541;28;19909;-72
2022/11/27 00:46:53;;;;;;;;;;;19.50;45.10;;;;;;5034305;28;19916;-72
2022/11/27 00:49:20;;;;;;;;;;;19.50;45.10;;;;;;5036872;28;19921;-74
2022/11/27 00:51:46;;;;;;;;;;;19.50;45.10;;;;;;5040693;28;19916;-73
2022/11/27 00:54:13;;;;;;;;;;;19.50;45.10;;;;;;5040537;28;19968;-72
2022/11/27 00:56:41;;;;;;;;;;;19.50;45.10;;;;;;5044292;28;19922;-72
2022/11/27 00:59:09;;;;;;;;;;;19.50;45.10;;;;;;5048397;28;19921;-73
2022/11/27 01:01:36;;;;;;;;;;;19.50;45.10;;;;;;5042314;28;19910;-73
2022/11/27 01:04:03;;;;;;;;;;;19.50;45.10;;;;;;5037123;28;19913;-73
2022/11/27 01:06:30;;;;;;;;;;;19.50;45.10;;;;;;5036073;28;19932;-72
2022/11/27 01:08:57;;;;;;;;;;;19.50;45.10;;;;;;5046540;28;19916;-72
2022/11/27 01:11:25;;;;;;;;;;;19.50;45.10;;;;;;5029343;28;19916;-72
2022/11/27 01:13:53;;;;;;;;;;;19.50;45.10;;;;;;5048671;28;19917;-72
2022/11/27 01:16:21;;;;;;;;;;;19.50;45.10;;;;;;5038060;28;19917;-72
2022/11/27 01:18:48;;;;;;;;;;;19.50;45.10;;;;;;5052843;28;19909;-72
2022/11/27 01:21:15;;;;;;;;;;;19.50;45.10;;;;;;5056561;28;19951;-72
2022/11/27 01:23:42;;;;;;;;;;;19.50;45.10;;;;;;5057622;28;19980;-73
2022/11/27 01:26:10;;;;;;;;;;;19.50;45.10;;;;;;5049129;28;19910;-73
2022/11/27 01:28:38;;;;;;;;;;;19.50;45.10;;;;;;5027607;28;19909;-72
2022/11/27 01:31:06;;;;;;;;;;;19.50;45.10;;;;;;5039250;28;19910;-73
2022/11/27 01:33:33;;;;;;;;;;;19.50;45.10;;;;;;5032357;28;19932;-73
2022/11/27 01:36:00;;;;;;;;;;;19.50;45.10;;;;;;5057097;28;19916;-73
2022/11/27 01:38:27;;;;;;;;;;;19.50;45.10;;;;;;5046179;28;19977;-72
2022/11/27 01:40:58;;;;;;;;;;;19.50;45.10;;;;;;5041079;28;19909;-73
2022/11/27 01:43:41;;;;;;;;;;;19.50;45.10;;;;;;5032328;28;19909;-72
2022/11/27 01:46:22;;;;;;;;;;;19.50;45.10;;;;;;5057888;28;19936;-72
2022/11/27 01:48:49;;;;;;;;;;;19.50;45.10;;;;;;5042889;28;19913;-73
2022/11/27 01:51:16;;;;;;;;;;;19.50;45.10;;;;;;5036740;28;19910;-72
2022/11/27 01:53:43;;;;;;;;;;;19.50;45.10;;;;;;5028824;28;19925;-72
2022/11/27 01:56:10;;;;;;;;;;;19.50;45.10;;;;;;5040659;28;20016;-73
2022/11/27 01:58:37;;;;;;;;;;;19.50;45.10;;;;;;5033391;28;19913;-72
2022/11/27 02:01:04;;;;;;;;;;;19.50;45.10;;;;;;5061160;28;19980;-73
2022/11/27 02:03:32;;;;;;;;;;;19.50;45.10;;;;;;5032233;28;19941;-72
2022/11/27 02:05:59;;;;;;;;;;;19.50;45.10;;;;;;5043838;28;19985;-73
2022/11/27 02:08:26;;;;;;;;;;;19.50;45.10;;;;;;5059952;28;19932;-73
2022/11/27 02:10:54;;;;;;;;;;;19.50;45.10;;;;;;5044225;28;19909;-72
2022/11/27 02:13:23;;;;;;;;;;;19.50;45.10;;;;;;5043757;28;19909;-72
2022/11/27 02:15:51;;;;;;;;;;;19.50;45.10;;;;;;5028089;28;19913;-72
2022/11/27 02:18:19;;;;;;;;;;;19.50;45.10;;;;;;5051149;28;19909;-73
2022/11/27 02:20:49;;;;;;;;;;;19.50;45.10;;;;;;5060617;28;19913;-72
2022/11/27 02:23:22;;;;;;;;;;;19.50;45.10;;;;;;5058408;28;19977;-72
2022/11/27 02:25:52;;;;;;;;;;;19.50;45.10;;;;;;5069039;28;19944;-73
2022/11/27 02:28:22;;;;;;;;;;;19.50;45.10;;;;;;5049731;28;19909;-72
2022/11/27 02:30:51;;;;;;;;;;;19.50;45.10;;;;;;5042912;28;19916;-73
2022/11/27 02:33:18;;;;;;;;;;;19.50;45.10;;;;;;5039454;28;19915;-72
2022/11/27 02:35:46;;;;;;;;;;;19.50;45.10;;;;;;5058366;28;19913;-74
2022/11/27 02:38:13;;;;;;;;;;;19.50;45.10;;;;;;5033370;28;19913;-73
2022/11/27 02:40:41;;;;;;;;;;;19.50;45.10;;;;;;5042557;28;19951;-73
2022/11/27 02:43:09;;;;;;;;;;;19.50;45.10;;;;;;5036752;28;19914;-72
2022/11/27 02:45:36;;;;;;;;;;;19.50;45.10;;;;;;5036587;28;19936;-72
2022/11/27 02:48:05;;;;;;;;;;;19.50;45.10;;;;;;5037433;28;19980;-74
2022/11/27 02:50:32;;;;;;;;;;;19.50;45.10;;;;;;5053453;28;19913;-73
2022/11/27 02:52:59;;;;;;;;;;;19.50;45.10;;;;;;5043372;28;19913;-72
2022/11/27 02:55:26;;;;;;;;;;;19.50;45.10;;;;;;5039082;28;19909;-72
2022/11/27 02:57:54;;;;;;;;;;;19.50;45.10;;;;;;5059114;28;19913;-73
2022/11/27 03:00:20;;;;;;;;;;;19.50;45.10;;;;;;5037544;28;19921;-73
2022/11/27 03:02:49;;;;;;;;;;;19.50;45.10;;;;;;5023406;28;19913;-72
2022/11/27 03:05:18;;;;;;;;;;;19.40;45.00;;;;;;5044207;28;19913;-72
2022/11/27 03:07:46;;;;;;;;;;;19.50;45.00;;;;;;5055705;28;19936;-73
2022/11/27 03:10:16;;;;;;;;;;;19.40;45.00;;;;;;5042147;28;19909;-73
2022/11/27 03:12:43;;;;;;;;;;;19.40;45.00;;;;;;5042049;28;19915;-72
2022/11/27 03:15:10;;;;;;;;;;;19.50;45.00;;;;;;5039896;28;19909;-73
2022/11/27 03:17:41;;;;;;;;;;;19.50;45.00;;;;;;5026500;28;19914;-72
2022/11/27 03:20:09;;;;;;;;;;;19.40;44.90;;;;;;5052813;28;19928;-73
2022/11/27 03:22:37;;;;;;;;;;;19.40;44.90;;;;;;5060659;28;19916;-73
2022/11/27 03:25:04;;;;;;;;;;;19.50;45.00;;;;;;5058501;28;19909;-73
2022/11/27 03:27:32;;;;;;;;;;;19.50;45.00;;;;;;5045370;28;19917;-73
2022/11/27 03:29:59;;;;;;;;;;;19.40;44.90;;;;;;5032736;28;19916;-73
2022/11/27 03:32:26;;;;;;;;;;;19.40;44.90;;;;;;5022110;28;19917;-72
2022/11/27 03:34:53;;;;;;;;;;;19.40;44.90;;;;;;5040703;28;19913;-73
2022/11/27 03:37:19;;;;;;;;;;;19.40;44.90;;;;;;5030201;28;19909;-73
2022/11/27 03:39:48;;;;;;;;;;;19.40;44.90;;;;;;5044318;28;19924;-70
2022/11/27 03:42:17;;;;;;;;;;;19.40;44.90;;;;;;5030407;28;19910;-72
2022/11/27 03:44:46;;;;;;;;;;;19.40;44.90;;;;;;5052208;28;19913;-73
2022/11/27 03:47:16;;;;;;;;;;;19.40;44.80;;;;;;5041204;28;19936;-73
2022/11/27 03:49:47;;;;;;;;;;;19.40;44.90;;;;;;5035771;28;19981;-73
2022/11/27 03:52:15;;;;;;;;;;;19.40;44.80;;;;;;5033843;28;19914;-72
2022/11/27 03:54:43;;;;;;;;;;;19.40;44.80;;;;;;5056105;28;19909;-72
2022/11/27 03:57:13;;;;;;;;;;;19.40;44.80;;;;;;5049716;28;19909;-73
2022/11/27 03:59:40;;;;;;;;;;;19.40;44.80;;;;;;5041622;28;19913;-73
2022/11/27 04:02:11;;;;;;;;;;;19.40;44.80;;;;;;5057960;28;19924;-72
2022/11/27 04:04:38;;;;;;;;;;;19.40;44.80;;;;;;5058560;28;19940;-72
2022/11/27 04:07:04;;;;;;;;;;;19.40;44.80;;;;;;5024508;28;19913;-72
2022/11/27 04:09:31;;;;;;;;;;;19.40;44.80;;;;;;5025781;28;19939;-73
2022/11/27 04:11:58;;;;;;;;;;;19.40;44.80;;;;;;5021247;28;19913;-70
2022/11/27 04:14:26;;;;;;;;;;;19.40;44.80;;;;;;5039840;28;19913;-73
2022/11/27 04:16:53;;;;;;;;;;;19.40;44.80;;;;;;5052899;28;19919;-72
2022/11/27 04:19:20;;;;;;;;;;;19.40;44.80;;;;;;5039110;28;19924;-72
2022/11/27 04:21:48;;;;;;;;;;;19.40;44.80;;;;;;5037639;28;19920;-73
2022/11/27 04:24:14;;;;;;;;;;;19.40;44.80;;;;;;5040970;28;19909;-74
2022/11/27 04:26:41;;;;;;;;;;;19.40;44.80;;;;;;5057352;28;19909;-73
2022/11/27 04:29:08;;;;;;;;;;;19.40;44.80;;;;;;5058011;28;19913;-73
2022/11/27 04:31:37;;;;;;;;;;;19.40;44.80;;;;;;5037880;28;19913;-72
2022/11/27 04:34:03;;;;;;;;;;;19.40;44.80;;;;;;5034548;28;19916;-73
2022/11/27 04:36:30;;;;;;;;;;;19.40;44.80;;;;;;5040370;28;19910;-72
2022/11/27 04:38:57;;;;;;;;;;;19.40;44.80;;;;;;5033190;28;19909;-73
2022/11/27 04:41:24;;;;;;;;;;;19.40;44.80;;;;;;5057039;28;19921;-74
2022/11/27 04:43:50;;;;;;;;;;;19.40;44.80;;;;;;5040965;28;19913;-72
2022/11/27 04:46:17;;;;;;;;;;;19.40;44.80;;;;;;5040527;28;19913;-73
2022/11/27 04:48:45;;;;;;;;;;;19.40;44.80;;;;;;5041015;28;19909;-72
2022/11/27 04:51:12;;;;;;;;;;;19.40;44.80;;;;;;5047188;28;19932;-72
2022/11/27 04:53:39;;;;;;;;;;;19.40;44.80;;;;;;5021020;28;19914;-73
2022/11/27 04:56:06;;;;;;;;;;;19.40;44.80;;;;;;5040297;28;19920;-71
2022/11/27 04:58:33;;;;;;;;;;;19.40;44.80;;;;;;5035426;28;19916;-73
2022/11/27 05:01:00;;;;;;;;;;;19.40;44.80;;;;;;5037425;28;19916;-72
2022/11/27 05:03:27;;;;;;;;;;;19.40;44.80;;;;;;5029066;28;19909;-73
2022/11/27 05:05:56;;;;;;;;;;;19.40;45.30;;;;;;5034318;28;19932;-72
2022/11/27 05:08:23;;;;;;;;;;;19.40;44.70;;;;;;5024394;28;19909;-73
2022/11/27 05:10:58;;;;;;;;;;;19.40;44.70;;;;;;5033379;28;19910;-73
2022/11/27 05:13:25;;;;;;;;;;;19.40;44.70;;;;;;5057503;28;19931;-73
2022/11/27 05:15:52;;;;;;;;;;;19.40;44.70;;;;;;5054077;28;19910;-73
2022/11/27 05:18:20;;;;;;;;;;;19.40;44.70;;;;;;5037512;28;20436;-73
2022/11/27 05:20:47;;;;;;;;;;;19.40;44.70;;;;;;5040817;28;19995;-73
2022/11/27 05:23:15;;;;;;;;;;;19.40;44.70;;;;;;5032706;28;19939;-73
2022/11/27 05:25:42;;;;;;;;;;;19.40;44.70;;;;;;5047004;28;19924;-73
2022/11/27 05:28:09;;;;;;;;;;;19.40;44.70;;;;;;5041425;28;19916;-73
2022/11/27 05:30:36;;;;;;;;;;;19.40;44.70;;;;;;5038155;28;19974;-73
2022/11/27 05:33:03;;;;;;;;;;;19.40;44.70;;;;;;5043311;28;19913;-73
2022/11/27 05:35:32;;;;;;;;;;;19.40;44.70;;;;;;5044362;28;19913;-73
2022/11/27 05:37:59;;;;;;;;;;;19.40;44.70;;;;;;5042678;28;19909;-73
2022/11/27 05:40:27;;;;;;;;;;;19.40;44.70;;;;;;5047133;28;19916;-73
2022/11/27 05:42:54;;;;;;;;;;;19.40;44.70;;;;;;5033169;28;19910;-73
2022/11/27 05:45:20;;;;;;;;;;;19.40;44.60;;;;;;5030395;28;19913;-72
2022/11/27 05:47:47;;;;;;;;;;;19.40;44.60;;;;;;5043874;28;19909;-73
2022/11/27 05:50:14;;;;;;;;;;;19.40;45.20;;;;;;5041856;28;19947;-73
2022/11/27 05:52:41;;;;;;;;;;;19.40;44.60;;;;;;5037453;28;19909;-73
2022/11/27 05:55:08;;;;;;;;;;;19.40;44.60;;;;;;5043866;28;19940;-74
2022/11/27 05:57:39;;;;;;;;;;;19.40;44.60;;;;;;5051334;28;19943;-73
2022/11/27 06:00:08;;;;;;;;;;;19.40;44.60;;;;;;5044375;28;19913;-72
2022/11/27 06:02:36;;;;;;;;;;;19.40;44.60;;;;;;5043599;28;19932;-73
2022/11/27 06:05:03;;;;;;;;;;;19.40;44.60;;;;;;5037273;28;19941;-73
2022/11/27 06:07:30;;;;;;;;;;;19.40;44.60;;;;;;5041685;28;19909;-73
2022/11/27 06:09:57;;;;;;;;;;;19.40;44.60;;;;;;5043699;28;19909;-73
2022/11/27 06:12:27;;;;;;;;;;;19.40;44.60;;;;;;5042252;28;19932;-73
2022/11/27 06:14:55;;;;;;;;;;;19.40;45.20;;;;;;5043394;28;19917;-73
2022/11/27 06:17:22;;;;;;;;;;;19.40;44.60;;;;;;5047334;28;19909;-74
2022/11/27 06:19:48;;;;;;;;;;;19.30;44.50;;;;;;5043528;28;19932;-73
2022/11/27 06:22:15;;;;;;;;;;;19.30;44.40;;;;;;5042294;28;19917;-73
2022/11/27 06:24:42;;;;;;;;;;;19.30;44.40;;;;;;5043174;28;19913;-73
2022/11/27 06:27:09;;;;;;;;;;;19.30;44.40;;;;;;5060435;28;19920;-73
2022/11/27 06:29:36;;;;;;;;;;;19.30;44.40;;;;;;5039926;28;19909;-73
2022/11/27 06:32:04;;;;;;;;;;;19.30;44.40;;;;;;5045887;28;19965;-73
2022/11/27 06:34:31;;;;;;;;;;;19.30;44.40;;;;;;5043369;28;19924;-73
2022/11/27 06:36:58;;;;;;;;;;;19.30;44.40;;;;;;5039184;28;19928;-73
2022/11/27 06:39:25;;;;;;;;;;;19.30;44.40;;;;;;5039612;28;19910;-73
2022/11/27 06:41:52;;;;;;;;;;;19.30;44.40;;;;;;5040885;28;19909;-72
2022/11/27 06:44:18;;;;;;;;;;;19.30;44.40;;;;;;5042810;28;19932;-73
2022/11/27 06:46:45;;;;;;;;;;;19.30;44.40;;;;;;5042093;28;19931;-72
2022/11/27 06:49:13;;;;;;;;;;;19.30;44.30;;;;;;5037157;28;19914;-73
2022/11/27 06:51:40;;;;;;;;;;;19.30;44.40;;;;;;5043239;28;19932;-74
2022/11/27 06:54:07;;;;;;;;;;;19.30;44.30;;;;;;5042688;28;19913;-74
2022/11/27 06:56:33;;;;;;;;;;;19.30;44.40;;;;;;5037516;28;19909;-73
2022/11/27 06:59:01;;;;;;;;;;;19.30;44.30;;;;;;5059268;28;19913;-73
2022/11/27 07:01:28;;;;;;;;;;;19.30;44.30;;;;;;5030971;28;19921;-73
2022/11/27 07:03:55;;;;;;;;;;;19.30;44.30;;;;;;5042357;28;19913;-73
2022/11/27 07:06:24;;;;;;;;;;;19.40;44.40;;;;;;5038155;28;19936;-73
2022/11/27 07:08:51;;;;;;;;;;;19.30;44.30;;;;;;5059612;28;19931;-73
2022/11/27 07:11:18;;;;;;;;;;;19.30;44.30;;;;;;5036615;28;19909;-72
2022/11/27 07:13:45;;;;;;;;;;;19.30;44.30;;;;;;5040403;28;19932;-74
2022/11/27 07:16:11;;;;;;;;;;;19.30;44.30;;;;;;5028586;28;19909;-72
2022/11/27 07:18:39;;;;;;;;;;;19.30;44.30;;;;;;5027928;28;19972;-73
2022/11/27 07:21:06;;;;;;;;;;;19.30;44.30;;;;;;5041321;28;19909;-73
2022/11/27 07:23:34;;;;;;;;;;;19.30;44.30;;;;;;5042695;28;19913;-73
2022/11/27 07:26:04;;;;;;;;;;;19.30;44.20;;;;;;5040654;28;19913;-73
2022/11/27 07:28:31;;;;;;;;;;;19.30;44.20;;;;;;5041541;28;19924;-73
2022/11/27 07:30:58;;;;;;;;;;;19.30;44.20;;;;;;5038413;28;19909;-73
2022/11/27 07:33:25;;;;;;;;;;;19.30;44.20;;;;;;5041175;28;19913;-73
2022/11/27 07:35:57;;;;;;;;;;;19.30;44.20;;;;;;5031104;28;19976;-72
2022/11/27 07:38:24;;;;;;;;;;;19.30;44.20;;;;;;5041861;28;19917;-72
2022/11/27 07:40:52;;;;;;;;;;;19.30;44.20;;;;;;5041666;28;19913;-73
2022/11/27 07:43:19;;;;;;;;;;;19.30;44.20;;;;;;5041146;28;19940;-73
2022/11/27 07:45:45;;;;;;;;;;;19.30;44.20;;;;;;5041279;28;19909;-73
2022/11/27 07:48:12;;;;;;;;;;;19.30;44.20;;;;;;5041237;28;19915;-73
2022/11/27 07:50:39;;;;;;;;;;;19.30;44.20;;;;;;5050069;28;19940;-73
2022/11/27 07:53:06;;;;;;;;;;;19.30;44.20;;;;;;5022871;28;19917;-74
2022/11/27 07:55:33;;;;;;;;;;;19.30;44.20;;;;;;5032915;28;19919;-73
2022/11/27 07:58:01;;;;;;;;;;;19.30;44.10;;;;;;5057561;28;19963;-73
2022/11/27 08:00:28;;;;;;;;;;;19.30;44.20;;;;;;5036880;28;19910;-72
2022/11/27 08:02:54;;;;;;;;;;;19.30;44.10;;;;;;5058192;28;19940;-73
2022/11/27 08:05:21;;;;;;;;;;;19.30;44.20;;;;;;5041204;28;19948;-74
2022/11/27 08:07:48;;;;;;;;;;;19.30;44.10;;;;;;5045071;28;19913;-73
2022/11/27 08:10:15;;;;;;;;;;;19.30;44.20;;;;;;5038902;28;19910;-73
2022/11/27 08:12:41;;;;;;;;;;;19.30;44.10;;;;;;5055866;28;19909;-73
2022/11/27 08:15:10;;;;;;;;;;;19.30;44.10;;;;;;5047325;28;20017;-72
2022/11/27 08:17:37;;;;;;;;;;;19.30;44.10;;;;;;5032684;28;20070;-72
2022/11/27 08:20:04;;;;;;;;;;;19.30;44.10;;;;;;5037708;28;19910;-73
2022/11/27 08:22:31;;;;;;;;;;;19.30;44.10;;;;;;5034350;28;19948;-72
2022/11/27 08:24:58;;;;;;;;;;;19.30;44.10;;;;;;5058949;28;19976;-72
2022/11/27 08:27:25;;;;;;;;;;;19.30;44.10;;;;;;5044662;28;19913;-72
2022/11/27 08:29:54;;;;;;;;;;;19.30;44.10;;;;;;5052887;28;19909;-72
2022/11/27 08:32:22;;;;;;;;;;;19.30;44.10;;;;;;5040630;28;19909;-72
2022/11/27 08:34:49;;;;;;;;;;;19.30;44.10;;;;;;5041752;28;19909;-72
2022/11/27 08:37:16;;;;;;;;;;;19.30;44.10;;;;;;5057262;28;19951;-72
2022/11/27 08:39:42;;;;;;;;;;;19.30;44.10;;;;;;5054120;28;19910;-72
2022/11/27 08:42:09;;;;;;;;;;;19.30;44.10;;;;;;5062466;28;19913;-72
2022/11/27 08:44:36;;;;;;;;;;;19.30;44.10;;;;;;5043182;28;19908;-72
2022/11/27 08:47:03;;;;;;;;;;;19.30;44.10;;;;;;5046466;28;19932;-73
2022/11/27 08:49:31;;;;;;;;;;;19.30;44.10;;;;;;5053112;28;19924;-72
2022/11/27 08:51:58;;;;;;;;;;;19.30;44.10;;;;;;5049341;28;19913;-72
2022/11/27 08:54:25;;;;;;;;;;;19.30;44.10;;;;;;5044754;28;19927;-72
2022/11/27 08:56:51;;;;;;;;;;;19.30;44.10;;;;;;5049219;28;19936;-72
2022/11/27 08:59:18;;;;;;;;;;;19.30;44.10;;;;;;5056684;28;19931;-72
2022/11/27 09:01:45;;;;;;;;;;;19.30;44.10;;;;;;5044473;28;19909;-72
2022/11/27 09:04:12;;;;;;;;;;;19.30;44.10;;;;;;5051878;28;19909;-73
2022/11/27 09:06:40;;;;;;;;;;;19.30;44.10;;;;;;5047510;28;19985;-72
2022/11/27 09:09:07;;;;;;;;;;;19.30;44.10;;;;;;5047779;28;19929;-72
2022/11/27 09:11:34;;;;;;;;;;;19.30;44.10;;;;;;5043658;28;19909;-72
2022/11/27 09:14:01;;;;;;;;;;;19.30;44.10;;;;;;5054173;28;19940;-72
2022/11/27 09:16:28;;;;;;;;;;;19.30;44.10;;;;;;5046989;28;19924;-73
2022/11/27 09:18:55;;;;;;;;;;;19.30;44.10;;;;;;5043917;28;19936;-72
2022/11/27 09:21:23;;;;;;;;;;;19.30;44.10;;;;;;5067761;28;19939;-72
2022/11/27 09:23:53;;;;;;;;;;;19.30;44.10;;;;;;5054674;28;19915;-72
2022/11/27 09:26:22;;;;;;;;;;;19.30;44.10;;;;;;5041344;28;19916;-72
2022/11/27 09:28:49;;;;;;;;;;;19.30;44.10;;;;;;5071334;28;19913;-72
2022/11/27 09:31:16;;;;;;;;;;;19.30;44.10;;;;;;5061819;28;19976;-72
2022/11/27 09:33:43;;;;;;;;;;;19.30;44.10;;;;;;5036153;28;19951;-72
2022/11/27 09:36:10;;;;;;;;;;;19.30;44.10;;;;;;5058313;28;19919;-72
2022/11/27 09:38:37;;;;;;;;;;;19.30;44.10;;;;;;5048317;28;19909;-72
2022/11/27 09:41:07;;;;;;;;;;;19.30;44.10;;;;;;5043092;28;19913;-71
2022/11/27 09:43:34;;;;;;;;;;;19.30;44.10;;;;;;5062206;28;19913;-72
2022/11/27 09:46:02;;;;;;;;;;;19.30;44.10;;;;;;5044892;28;19917;-72
2022/11/27 09:48:32;;;;;;;;;;;19.30;44.10;;;;;;5036436;28;19916;-72
2022/11/27 09:50:59;;;;;;;;;;;19.30;44.10;;;;;;5020458;28;19945;-73
2022/11/27 09:53:27;;;;;;;;;;;19.30;44.10;;;;;;5041422;28;19941;-72
2022/11/27 09:55:54;;;;;;;;;;;19.30;44.10;;;;;;5053219;28;19917;-71
2022/11/27 09:58:25;;;;;;;;;;;19.30;44.10;;;;;;5054999;28;19976;-71
2022/11/27 10:00:52;;;;;;;;;;;19.30;44.10;;;;;;5036577;28;19913;-72
2022/11/27 10:03:20;;;;;;;;;;;19.30;44.10;;;;;;5049820;28;19909;-72
2022/11/27 10:05:47;;;;;;;;;;;19.30;44.10;;;;;;5047666;28;19923;-72
2022/11/27 10:08:23;;;;;;;;;;;19.30;44.10;;;;;;5064719;28;19913;-72
2022/11/27 10:10:54;;;;;;;;;;;19.30;44.10;;;;;;5040177;28;19933;-72
2022/11/27 10:13:28;;;;;;;;;;;19.30;44.10;;;;;;5047514;28;19916;-72
2022/11/27 10:15:55;;;;;;;;;;;19.30;44.10;;;;;;5024782;28;19916;-71
2022/11/27 10:18:25;;;;;;;;;;;19.30;44.10;;;;;;5040840;28;19924;-72
2022/11/27 10:20:53;;;;;;;;;;;19.30;44.10;;;;;;5037276;28;19989;-72
2022/11/27 10:23:21;;;;;;;;;;;19.30;44.10;;;;;;5038342;28;19913;-72
2022/11/27 10:25:49;;;;;;;;;;;19.30;44.10;;;;;;5048819;28;19908;-73
2022/11/27 10:28:18;;;;;;;;;;;19.30;44.10;;;;;;5055913;28;19908;-72
2022/11/27 10:30:47;;;;;;;;;;;19.30;44.10;;;;;;5037634;28;19909;-71
2022/11/27 10:33:16;;;;;;;;;;;19.30;44.10;;;;;;5024778;28;19928;-69
2022/11/27 10:35:42;;;;;;;;;;;19.30;44.10;;;;;;5010508;28;19921;-68
2022/11/27 10:38:10;;;;;;;;;;;19.30;44.10;;;;;;5007580;28;19925;-68
2022/11/27 10:40:37;;;;;;;;;;;19.30;44.10;;;;;;5018225;28;19928;-68
2022/11/27 10:43:05;;;;;;;;;;;19.30;44.10;;;;;;5013765;28;19921;-70
2022/11/27 10:45:36;;;;;;;;;;;19.30;44.10;;;;;;5037642;28;19922;-70
2022/11/27 10:48:05;;;;;;;;;;;19.30;44.10;;;;;;5017977;28;19944;-69
2022/11/27 10:50:33;;;;;;;;;;;19.30;44.10;;;;;;5018306;28;19921;-70
2022/11/27 10:53:00;;;;;;;;;;;19.30;44.10;;;;;;5019665;28;19961;-68
2022/11/27 10:55:28;;;;;;;;;;;19.30;44.10;;;;;;5017806;28;19921;-70
2022/11/27 10:57:58;;;;;;;;;;;19.30;44.10;;;;;;5033959;28;19927;-69
2022/11/27 11:00:26;;;;;;;;;;;19.30;44.10;;;;;;5024572;28;19928;-69
2022/11/27 11:02:59;;;;;;;;;;;19.30;44.10;;;;;;5021790;28;19932;-69
2022/11/27 11:05:27;;;;;;;;;;;19.30;44.10;;;;;;5006991;28;19956;-69
2022/11/27 11:07:58;;;;;;;;;;;19.30;44.10;;;;;;5016995;28;19932;-70
2022/11/27 11:10:26;;;;;;;;;;;19.30;44.10;;;;;;5028517;28;20345;-68
2022/11/27 11:13:12;;;;;;;;;;;19.30;44.00;;;;;;5013578;28;19933;-69
2022/11/27 11:15:43;;;;;;;;;;;19.30;44.10;;;;;;5009723;28;19925;-69
2022/11/27 11:18:16;;;;;;;;;;;19.30;44.10;;;;;;5036793;28;19983;-69
2022/11/27 11:20:45;;;;;;;;;;;19.30;44.00;;;;;;5017437;28;19929;-68
2022/11/27 11:23:17;;;;;;;;;;;19.30;44.00;;;;;;5034257;28;19921;-68
2022/11/27 11:25:48;;;;;;;;;;;19.30;44.00;;;;;;5011649;28;19928;-69
2022/11/27 11:28:15;;;;;;;;;;;19.30;44.00;;;;;;5021928;28;19928;-69
2022/11/27 11:30:42;;;;;;;;;;;19.30;44.00;;;;;;5023585;28;19937;-69
2022/11/27 11:33:10;;;;;;;;;;;19.30;44.00;;;;;;5037439;28;20028;-69
2022/11/27 11:35:37;;;;;;;;;;;19.30;44.00;;;;;;5016610;28;19921;-69
2022/11/27 11:38:06;;;;;;;;;;;19.30;44.10;;;;;;5032978;28;19921;-69
2022/11/27 11:40:33;;;;;;;;;;;19.30;44.00;;;;;;5021292;28;19925;-69
2022/11/27 11:43:01;;;;;;;;;;;19.30;44.00;;;;;;5023018;28;19932;-69
2022/11/27 11:45:28;;;;;;;;;;;19.30;44.00;;;;;;5018671;28;20439;-68
2022/11/27 11:47:55;;;;;;;;;;;19.30;44.00;;;;;;5022850;28;19924;-69
2022/11/27 11:50:25;;;;;;;;;;;19.30;44.00;;;;;;5014238;28;19925;-68
2022/11/27 11:52:53;;;;;;;;;;;19.30;44.00;;;;;;5015853;28;19936;-68
2022/11/27 11:55:22;;;;;;;;;;;19.30;44.00;;;;;;5019459;28;19956;-69
2022/11/27 11:57:58;;;;;;;;;;;19.30;44.00;;;;;;5016147;28;19951;-68
2022/11/27 12:00:25;;;;;;;;;;;19.30;44.10;;;;;;5009788;28;19940;-69
2022/11/27 12:03:05;;;;;;;;;;;19.30;44.00;;;;;;5014688;28;19998;-70
2022/11/27 12:05:34;;;;;;;;;;;19.30;44.00;;;;;;5015594;28;19929;-69
2022/11/27 12:08:07;;;;;;;;;;;19.30;44.00;;;;;;5016682;28;19965;-68
2022/11/27 12:10:38;;;;;;;;;;;19.30;44.00;;;;;;5016065;28;19929;-70
2022/11/27 12:13:08;;;;;;;;;;;19.30;44.00;;;;;;5031052;28;19929;-68
2022/11/27 12:15:35;;;;;;;;;;;19.30;44.00;;;;;;5027301;28;19924;-71
2022/11/27 12:18:03;;;;;;;;;;;19.30;44.00;;;;;;5019561;28;19943;-69
2022/11/27 12:20:33;;;;;;;;;;;19.30;44.00;;;;;;5012206;28;19921;-69
2022/11/27 12:23:17;;;;;;;;;;;19.30;44.00;;;;;;5006154;28;19929;-68
2022/11/27 12:25:47;;;;;;;;;;;19.30;44.10;;;;;;5026818;28;19937;-69
2022/11/27 12:28:27;;;;;;;;;;;19.30;44.00;;;;;;5035970;28;20327;-70
2022/11/27 12:30:54;;;;;;;;;;;19.40;44.10;;;;;;5033430;28;19927;-69
2022/11/27 12:33:28;;;;;;;;;;;19.30;44.60;;;;;;5011441;28;19921;-69
2022/11/27 12:35:57;;;;;;;;;;;19.30;44.10;;;;;;5010160;28;19928;-70
2022/11/27 12:38:34;;;;;;;;;;;19.40;44.10;;;;;;5009505;28;19982;-70
2022/11/27 12:41:17;;;;;;;;;;;19.30;44.10;;;;;;5007241;28;19921;-70
2022/11/27 12:43:45;;;;;;;;;;;19.40;44.10;;;;;;5010007;28;19921;-69
2022/11/27 12:46:13;;;;;;;;;;;19.40;44.20;;;;;;5009893;28;19933;-69
2022/11/27 12:48:40;;;;;;;;;;;19.40;44.20;;;;;;5007549;28;19984;-69
2022/11/27 12:51:08;;;;;;;;;;;19.40;44.20;;;;;;5015879;28;19928;-71
2022/11/27 12:53:35;;;;;;;;;;;19.40;44.20;;;;;;5010797;28;20445;-71
2022/11/27 12:56:03;;;;;;;;;;;19.40;44.20;;;;;;5012126;28;19921;-69
2022/11/27 12:58:32;;;;;;;;;;;19.40;44.20;;;;;;5018128;28;19929;-70
2022/11/27 13:01:01;;;;;;;;;;;19.40;44.20;;;;;;5008645;28;19980;-68
2022/11/27 13:03:31;;;;;;;;;;;19.50;44.90;;;;;;5029396;28;19925;-70
2022/11/27 13:05:58;;;;;;;;;;;19.50;44.30;;;;;;5014179;28;19921;-69
2022/11/27 13:08:26;;;;;;;;;;;19.50;44.30;;;;;;5032803;28;19925;-69
2022/11/27 13:10:54;;;;;;;;;;;19.50;44.30;;;;;;5014439;28;19925;-69
2022/11/27 13:13:22;;;;;;;;;;;19.50;44.30;;;;;;5040406;28;19975;-69
2022/11/27 13:15:50;;;;;;;;;;;19.50;44.30;;;;;;5022978;28;19967;-69
2022/11/27 13:18:18;;;;;;;;;;;19.50;44.30;;;;;;5029314;28;19975;-70
2022/11/27 13:20:45;;;;;;;;;;;19.50;44.20;;;;;;5022669;28;20371;-69
2022/11/27 13:23:12;;;;;;;;;;;19.50;44.20;;;;;;5004864;28;19944;-70
2022/11/27 13:25:40;;;;;;;;;;;19.50;44.20;;;;;;5033982;28;19928;-69
2022/11/27 13:28:07;;;;;;;;;;;19.50;44.20;;;;;;5011800;28;19936;-70
2022/11/27 13:30:34;;;;;;;;;;;19.50;44.20;;;;;;5009624;28;19966;-70
2022/11/27 13:33:05;;;;;;;;;;;19.60;44.30;;;;;;5010106;28;20367;-68
2022/11/27 13:35:36;;;;;;;;;;;19.60;44.30;;;;;;5031012;28;19921;-69
2022/11/27 13:38:05;;;;;;;;;;;19.60;44.40;;;;;;5014511;28;19928;-69
2022/11/27 13:40:32;;;;;;;;;;;19.60;44.30;;;;;;5029385;28;19921;-69
2022/11/27 13:43:01;;;;;;;;;;;19.60;44.30;;;;;;5008063;28;19940;-69
2022/11/27 13:45:28;;;;;;;;;;;19.60;44.30;;;;;;5003678;28;19956;-69
2022/11/27 13:47:55;;;;;;;;;;;19.60;44.30;;;;;;5026400;28;19933;-70
2022/11/27 13:50:23;;;;;;;;;;;19.60;44.30;;;;;;5016169;28;19976;-68
2022/11/27 13:52:51;;;;;;;;;;;19.60;44.30;;;;;;5035196;28;19979;-69
2022/11/27 13:55:22;;;;;;;;;;;19.60;44.20;;;;;;5018896;28;20109;-67
2022/11/27 13:57:51;;;;;;;;;;;19.60;44.30;;;;;;4999582;28;19928;-64
2022/11/27 14:00:18;;;;;;;;;;;19.60;44.30;;;;;;5017335;28;19932;-65
2022/11/27 14:02:45;;;;;;;;;;;19.60;43.80;;;;;;5012779;28;19944;-66
2022/11/27 14:05:13;;;;;;;;;;;19.60;43.20;;;;;;5012563;28;19967;-65
2022/11/27 14:07:41;;;;;;;;;;;19.60;42.90;;;;;;5013117;28;19991;-65
2022/11/27 14:10:09;;;;;;;;;;;19.50;42.70;;;;;;5012514;28;19921;-66
2022/11/27 14:12:36;;;;;;;;;;;19.50;42.70;;;;;;5013396;28;19922;-65
2022/11/27 14:15:04;;;;;;;;;;;19.50;42.60;;;;;;5015447;28;19922;-65
2022/11/27 14:17:35;;;;;;;;;;;19.50;42.60;;;;;;5012032;28;19979;-65
2022/11/27 14:20:03;;;;;;;;;;;19.50;42.50;;;;;;5023511;28;20025;-65